Time;durP1;ratioP1;P1;durP2;ratioP2;P2;SDS_P1;SDS_P2;PMS_P1;PMS_P2;Temp;Humidity;BMP_temperature;BMP_pressure;BME280_temperature;BME280_humidity;BME280_pressure;Samples;Min_cycle;Max_cycle;Signal;HPM_P1;HPM_P2
2023/08/04 00:00:07;;;;;;;1999.90;999.90;;;;;;;15.96;100.00;93664.47;5025028;28;20203;-58
2023/08/04 00:02:32;;;;;;;1999.90;999.90;;;;;;;15.97;100.00;93666.00;5024818;28;20206;-56
2023/08/04 00:04:57;;;;;;;1999.90;999.90;;;;;;;15.93;100.00;93670.97;5024769;28;20191;-58
2023/08/04 00:07:23;;;;;;;1999.90;999.90;;;;;;;15.93;100.00;93676.47;5024584;28;20289;-58
2023/08/04 00:09:48;;;;;;;1999.90;999.90;;;;;;;15.97;100.00;93679.00;5024661;28;20253;-58
2023/08/04 00:12:13;;;;;;;1999.90;999.90;;;;;;;15.96;100.00;93675.50;5025152;28;20214;-58
2023/08/04 00:14:39;;;;;;;1999.90;999.90;;;;;;;15.93;100.00;93670.97;5024447;28;20188;-58
2023/08/04 00:17:04;;;;;;;1999.90;999.90;;;;;;;15.97;100.00;93671.53;5024540;28;20183;-58
2023/08/04 00:19:29;;;;;;;1999.90;999.90;;;;;;;15.97;100.00;93668.78;5024816;28;20210;-58
2023/08/04 00:21:55;;;;;;;1999.90;999.90;;;;;;;15.94;100.00;93672.47;5025215;28;20195;-58
2023/08/04 00:24:21;;;;;;;1999.90;999.90;;;;;;;15.89;100.00;93666.88;5024392;28;20195;-58
2023/08/04 00:26:46;;;;;;;1999.90;999.90;;;;;;;15.79;100.00;93685.53;5024547;28;20206;-58
2023/08/04 00:29:11;;;;;;;1999.90;999.90;;;;;;;15.74;100.00;93685.44;5024644;28;20218;-58
2023/08/04 00:31:37;;;;;;;1999.90;999.90;;;;;;;15.75;100.00;93700.72;5024527;28;20186;-59
2023/08/04 00:34:02;;;;;;;1999.90;999.90;;;;;;;15.77;100.00;93696.25;5024619;28;20197;-60
2023/08/04 00:36:27;;;;;;;1999.90;999.90;;;;;;;15.79;100.00;93715.03;5024247;28;20261;-58
2023/08/04 00:38:53;;;;;;;1999.90;999.90;;;;;;;15.76;100.00;93711.25;5024153;28;20195;-59
2023/08/04 00:41:18;;;;;;;1999.90;999.90;;;;;;;15.73;100.00;93701.19;5024363;28;20198;-59
2023/08/04 00:43:43;;;;;;;1999.90;999.90;;;;;;;15.63;100.00;93713.53;5024388;28;20194;-58
2023/08/04 00:46:09;;;;;;;1999.90;999.90;;;;;;;15.64;100.00;93720.56;5023998;28;20230;-58
2023/08/04 00:48:35;;;;;;;1999.90;999.90;;;;;;;15.60;100.00;93736.53;5024038;28;20175;-59
2023/08/04 00:51:01;;;;;;;1999.90;999.90;;;;;;;15.62;100.00;93738.78;5024563;28;20195;-58
2023/08/04 00:53:27;;;;;;;1999.90;999.90;;;;;;;15.64;100.00;93741.81;5024454;28;20305;-58
2023/08/04 00:55:52;;;;;;;1999.90;999.90;;;;;;;15.67;100.00;93752.63;5023916;28;20191;-58
2023/08/04 00:58:18;;;;;;;1999.90;999.90;;;;;;;15.67;100.00;93755.38;5024033;28;20198;-58
2023/08/04 01:00:43;;;;;;;1999.90;999.90;;;;;;;15.69;100.00;93755.66;5023731;28;20237;-56
2023/08/04 01:03:08;;;;;;;1999.90;999.90;;;;;;;15.69;100.00;93743.91;5023974;28;20195;-58
2023/08/04 01:05:53;;;;;;;1999.90;999.90;;;;;;;15.66;100.00;93745.59;5024027;28;20191;-58
2023/08/04 01:08:33;;;;;;;1999.90;999.90;;;;;;;15.67;100.00;93724.34;5023925;28;20187;-59
2023/08/04 01:11:12;;;;;;;1999.90;999.90;;;;;;;15.67;100.00;93708.59;5024294;28;20258;-59
2023/08/04 01:13:39;;;;;;;1999.90;999.90;;;;;;;15.64;100.00;93723.31;5024285;28;20198;-56
2023/08/04 01:16:07;;;;;;;1999.90;999.90;;;;;;;15.65;100.00;93743.31;5024263;28;20413;-58
2023/08/04 01:18:33;;;;;;;1999.90;999.90;;;;;;;15.68;100.00;93753.41;5024110;28;20191;-58
2023/08/04 01:21:03;;;;;;;1999.90;999.90;;;;;;;15.68;100.00;93754.16;5023729;28;20201;-58
2023/08/04 01:23:28;;;;;;;1999.90;999.90;;;;;;;15.67;100.00;93749.88;5024025;28;20265;-58
2023/08/04 01:25:54;;;;;;;1999.90;999.90;;;;;;;15.72;100.00;93757.47;5023629;28;20222;-58
2023/08/04 01:28:21;;;;;;;1999.90;999.90;;;;;;;15.68;100.00;93754.16;5023587;28;20218;-58
2023/08/04 01:30:49;;;;;;;1999.90;999.90;;;;;;;15.69;100.00;93755.66;5023872;28;20183;-57
2023/08/04 01:33:15;;;;;;;1999.90;999.90;;;;;;;15.68;100.00;93765.16;5023785;28;20187;-58
2023/08/04 01:35:42;;;;;;;1999.90;999.90;;;;;;;15.68;100.00;93765.16;5023646;28;20266;-58
2023/08/04 01:38:08;;;;;;;1999.90;999.90;;;;;;;15.63;100.00;93757.56;5024127;28;20187;-58
2023/08/04 01:40:33;;;;;;;1999.90;999.90;;;;;;;15.64;100.00;93753.59;5023823;28;20194;-58
2023/08/04 01:42:58;;;;;;;1999.90;999.90;;;;;;;15.53;100.00;93747.91;5023995;28;20209;-58
2023/08/04 01:45:24;;;;;;;1999.90;999.90;;;;;;;15.60;100.00;93750.28;5024000;28;20259;-58
2023/08/04 01:47:50;;;;;;;1999.90;999.90;;;;;;;15.56;100.00;93752.44;5023453;28;20219;-58
2023/08/04 01:50:16;;;;;;;1999.90;999.90;;;;;;;15.55;100.00;93733.69;5023393;28;20191;-60
2023/08/04 01:52:41;;;;;;;1999.90;999.90;;;;;;;15.49;100.00;93730.06;5023488;28;20187;-59
2023/08/04 01:55:07;;;;;;;1999.90;999.90;;;;;;;15.44;100.00;93725.97;5023438;28;20187;-58
2023/08/04 01:57:32;;;;;;;1999.90;999.90;;;;;;;15.44;100.00;93722.50;5023436;28;20194;-58
2023/08/04 01:59:57;;;;;;;1999.90;999.90;;;;;;;15.42;100.00;93725.72;5023396;28;20191;-59
2023/08/04 02:02:23;;;;;;;1999.90;999.90;;;;;;;15.43;100.00;93732.72;5023779;28;20187;-58
2023/08/04 02:04:48;;;;;;;1999.90;999.90;;;;;;;15.46;100.00;93742.78;5023928;28;20203;-58
2023/08/04 02:07:13;;;;;;;1999.90;999.90;;;;;;;15.45;100.00;93743.25;5023121;28;20265;-59
2023/08/04 02:09:39;;;;;;;1999.90;999.90;;;;;;;15.37;100.00;93740.13;5026676;28;20182;-58
2023/08/04 02:12:05;;;;;;;1999.90;999.90;;;;;;;15.43;100.00;93732.72;5027022;28;20195;-58
2023/08/04 02:14:30;;;;;;;1999.90;999.90;;;;;;;15.41;100.00;93735.19;5027099;28;20195;-57
2023/08/04 02:16:56;;;;;;;1999.90;999.90;;;;;;;15.45;100.00;93730.25;5026991;28;20264;-57
2023/08/04 02:19:22;;;;;;;1999.90;999.90;;;;;;;15.46;100.00;93748.28;5026895;28;20203;-58
2023/08/04 02:21:48;;;;;;;1999.90;999.90;;;;;;;15.47;100.00;93760.81;5026724;28;20191;-58
2023/08/04 02:24:14;;;;;;;1999.90;999.90;;;;;;;15.42;100.00;93808.25;5026558;28;20258;-59
2023/08/04 02:26:39;;;;;;;1999.90;999.90;;;;;;;15.41;100.00;93839.72;5026704;28;20210;-59
2023/08/04 02:29:04;;;;;;;1999.90;999.90;;;;;;;15.44;100.00;93838.78;5026583;28;20269;-60
2023/08/04 02:31:32;;;;;;;1999.90;999.90;;;;;;;15.38;100.00;93843.44;5026761;28;20195;-59
2023/08/04 02:33:58;;;;;;;1999.90;999.90;;;;;;;15.42;100.00;93846.00;5027061;28;20187;-59
2023/08/04 02:36:24;;;;;;;1999.90;999.90;;;;;;;15.38;100.00;93840.69;5026880;28;20240;-60
2023/08/04 02:38:50;;;;;;;1999.90;999.90;;;;;;;15.37;100.00;93839.16;5026893;28;20183;-59
2023/08/04 02:41:15;;;;;;;1999.90;999.90;;;;;;;15.38;100.00;93824.19;5026857;28;20206;-59
2023/08/04 02:43:40;;;;;;;1999.90;999.90;;;;;;;15.39;100.00;93819.41;5026797;28;20187;-59
2023/08/04 02:46:07;;;;;;;1999.90;999.90;;;;;;;15.42;100.00;93794.50;5026752;28;20210;-59
2023/08/04 02:48:33;;;;;;;1999.90;999.90;;;;;;;15.33;100.00;93816.53;5026671;28;20191;-59
2023/08/04 02:51:03;;;;;;;1999.90;999.90;;;;;;;15.36;100.00;93831.38;5026157;28;20202;-58
2023/08/04 02:53:29;;;;;;;1999.90;999.90;;;;;;;15.35;100.00;93840.81;5026250;28;20213;-58
2023/08/04 02:55:55;;;;;;;1999.90;999.90;;;;;;;15.30;100.00;93844.97;5026154;28;20219;-59
2023/08/04 02:58:26;;;;;;;1999.90;999.90;;;;;;;15.31;100.00;93852.03;5026130;28;20194;-59
2023/08/04 03:00:52;;;;;;;1999.90;999.90;;;;;;;15.31;100.00;93863.03;5026104;28;20199;-59
2023/08/04 03:03:18;;;;;;;1999.90;999.90;;;;;;;15.32;100.00;93859.03;5026128;28;20190;-59
2023/08/04 03:05:43;;;;;;;1999.90;999.90;;;;;;;15.32;100.00;93856.28;5025476;28;20278;-59
2023/08/04 03:08:09;;;;;;;1999.90;999.90;;;;;;;15.35;100.00;93855.38;5025852;28;20222;-59
2023/08/04 03:10:34;;;;;;;1999.90;999.90;;;;;;;15.36;100.00;93859.63;5026138;28;20195;-59
2023/08/04 03:12:59;;;;;;;1999.90;999.90;;;;;;;15.33;100.00;93860.53;5025741;28;20269;-59
2023/08/04 03:15:25;;;;;;;1999.90;999.90;;;;;;;15.28;100.00;93858.47;5025957;28;20199;-59
2023/08/04 03:17:51;;;;;;;1999.90;999.90;;;;;;;15.30;100.00;93869.75;5025585;28;20191;-58
2023/08/04 03:20:16;;;;;;;1999.90;999.90;;;;;;;15.29;100.00;93859.97;5025746;28;20286;-58
2023/08/04 03:22:42;;;;;;;1999.90;999.90;;;;;;;15.31;100.00;93852.03;5025738;28;20222;-58
2023/08/04 03:25:09;;;;;;;1999.90;999.90;;;;;;;15.33;100.00;93859.78;5025576;28;20199;-58
2023/08/04 03:27:35;;;;;;;1999.90;999.90;;;;;;;15.29;100.00;93848.19;5025457;28;20249;-59
2023/08/04 03:30:00;;;;;;;1999.90;999.90;;;;;;;15.32;100.00;93853.53;5025206;28;20191;-59
2023/08/04 03:32:26;;;;;;;1999.90;999.90;;;;;;;15.34;100.00;93856.56;5025569;28;20272;-58
2023/08/04 03:34:51;;;;;;;1999.90;999.90;;;;;;;15.32;100.00;93847.25;5025362;28;20266;-57
2023/08/04 03:37:16;;;;;;;1999.90;999.90;;;;;;;15.35;100.00;93857.31;5025625;28;20210;-57
2023/08/04 03:39:42;;;;;;;1999.90;999.90;;;;;;;15.29;100.00;93859.97;5025710;28;20194;-56
2023/08/04 03:42:08;;;;;;;1999.90;999.90;;;;;;;15.25;100.00;93864.91;5025568;28;20199;-58
2023/08/04 03:44:34;;;;;;;1999.90;999.90;;;;;;;15.25;100.00;93870.41;5025356;28;20199;-57
2023/08/04 03:46:59;;;;;;;1999.90;999.90;;;;;;;15.23;100.00;93878.34;5025144;28;20281;-56
2023/08/04 03:49:24;;;;;;;1999.90;999.90;;;;;;;15.21;100.00;93880.81;5025087;28;20191;-58
2023/08/04 03:51:50;;;;;;;1999.90;999.90;;;;;;;15.19;100.00;93872.25;5025070;28;20202;-59
2023/08/04 03:54:15;;;;;;;1999.90;999.90;;;;;;;15.18;100.00;93865.25;5024746;28;20209;-59
2023/08/04 03:56:40;;;;;;;1999.90;999.90;;;;;;;15.14;100.00;93870.19;5025424;28;20210;-58
2023/08/04 03:59:08;;;;;;;1999.90;999.90;;;;;;;15.09;100.00;93870.06;5024841;28;20191;-59
2023/08/04 04:01:33;;;;;;;1999.90;999.90;;;;;;;15.09;100.00;93881.84;5025353;28;20258;-58
2023/08/04 04:03:59;;;;;;;1999.90;999.90;;;;;;;15.09;100.00;93876.34;5024943;28;20190;-58
2023/08/04 04:06:24;;;;;;;1999.90;999.90;;;;;;;15.05;100.00;93867.47;5024899;28;20248;-58
2023/08/04 04:08:49;;;;;;;1999.90;999.90;;;;;;;14.98;100.00;93867.84;5024866;28;20229;-58
2023/08/04 04:11:15;;;;;;;1999.90;999.90;;;;;;;14.98;100.00;93850.59;5025197;28;20267;-58
2023/08/04 04:13:40;;;;;;;1999.90;999.90;;;;;;;14.94;100.00;93844.50;5024902;28;20195;-58
2023/08/04 04:16:05;;;;;;;1999.90;999.90;;;;;;;14.87;100.00;93829.13;5025092;28;20237;-59
2023/08/04 04:18:31;;;;;;;1999.90;999.90;;;;;;;14.77;100.00;93807.66;5024269;28;20193;-59
2023/08/04 04:20:56;;;;;;;1999.90;999.90;;;;;;;14.68;100.00;93805.72;5024557;28;20203;-58
2023/08/04 04:23:21;;;;;;;1999.90;999.90;;;;;;;14.64;100.00;93787.91;5024505;28;20191;-59
2023/08/04 04:25:47;;;;;;;1999.90;999.90;;;;;;;14.60;100.00;93754.38;5024342;28;20201;-59
2023/08/04 04:28:12;;;;;;;1999.90;999.90;;;;;;;14.57;100.00;93741.56;5024364;28;20194;-59
2023/08/04 04:30:37;;;;;;;1999.90;999.90;;;;;;;14.52;100.00;93726.47;5024345;28;20245;-59
2023/08/04 04:33:03;;;;;;;1999.90;999.90;;;;;;;14.53;100.00;93705.28;5024189;28;20183;-59
2023/08/04 04:35:28;;;;;;;1999.90;999.90;;;;;;;14.52;100.00;93682.53;5024525;28;20222;-59
2023/08/04 04:37:53;;;;;;;1999.90;999.90;;;;;;;14.55;100.00;93681.59;5025000;28;20194;-58
2023/08/04 04:40:19;;;;;;;1999.90;999.90;;;;;;;14.67;100.00;93699.81;5024651;28;20195;-59
2023/08/04 04:42:44;;;;;;;1999.90;999.90;;;;;;;14.77;100.00;93698.50;5024396;28;20183;-58
2023/08/04 04:45:10;;;;;;;1999.90;999.90;;;;;;;14.88;100.00;93698.72;5024953;28;20222;-59
2023/08/04 04:47:35;;;;;;;1999.90;999.90;;;;;;;14.84;100.00;93703.63;5024432;28;20211;-58
2023/08/04 04:50:01;;;;;;;1999.90;999.90;;;;;;;14.83;100.00;93691.09;5024375;28;20205;-60
2023/08/04 04:52:37;;;;;;;1999.90;999.90;;;;;;;14.85;100.00;93677.66;5023889;28;20202;-69
2023/08/04 04:55:03;;;;;;;1999.90;999.90;;;;;;;14.89;100.00;93667.22;5024034;28;20191;-61
2023/08/04 04:57:29;;;;;;;1999.90;999.90;;;;;;;14.90;100.00;93657.75;5024102;28;20210;-59
2023/08/04 04:59:55;;;;;;;1999.90;999.90;;;;;;;14.78;100.00;93667.03;5023899;28;20197;-59
2023/08/04 05:02:20;;;;;;;1999.90;999.90;;;;;;;14.82;100.00;93661.38;5024011;28;20266;-59
2023/08/04 05:04:46;;;;;;;1999.90;999.90;;;;;;;14.83;100.00;93662.88;5024129;28;20198;-59
2023/08/04 05:07:11;;;;;;;1999.90;999.90;;;;;;;14.86;100.00;93654.44;5023766;28;20257;-60
2023/08/04 05:09:38;;;;;;;1999.90;999.90;;;;;;;14.79;100.00;93645.81;5023903;28;20206;-60
2023/08/04 05:12:03;;;;;;;1999.90;999.90;;;;;;;14.85;100.00;93643.91;5024273;28;20199;-59
2023/08/04 05:14:29;;;;;;;1999.90;999.90;;;;;;;14.88;100.00;93629.22;5024311;28;20197;-59
2023/08/04 05:16:54;;;;;;;1999.90;999.90;;;;;;;14.95;100.00;93615.88;5023732;28;20202;-59
2023/08/04 05:19:19;;;;;;;1999.90;999.90;;;;;;;14.97;100.00;93607.16;5023627;28;20214;-59
2023/08/04 05:21:45;;;;;;;1999.90;999.90;;;;;;;14.99;100.00;93604.66;5023631;28;20195;-59
2023/08/04 05:24:10;;;;;;;1999.90;999.90;;;;;;;15.01;100.00;93602.22;5023978;28;20199;-60
2023/08/04 05:26:36;;;;;;;1999.90;999.90;;;;;;;14.98;100.00;93598.44;5023912;28;20215;-59
2023/08/04 05:29:01;;;;;;;1999.90;999.90;;;;;;;14.95;100.00;93582.88;5023658;28;20191;-59
2023/08/04 05:31:26;;;;;;;1999.90;999.90;;;;;;;14.91;100.00;93576.81;5023877;28;20195;-59
2023/08/04 05:33:51;;;;;;;1999.90;999.90;;;;;;;14.95;100.00;93574.63;5024268;28;20202;-59
2023/08/04 05:36:17;;;;;;;1999.90;999.90;;;;;;;15.00;100.00;93562.97;5023791;28;20199;-59
2023/08/04 05:38:44;;;;;;;1999.90;999.90;;;;;;;15.03;100.00;93584.00;5023834;28;20229;-61
2023/08/04 05:41:09;;;;;;;1999.90;999.90;;;;;;;15.09;100.00;93590.38;5023458;28;20199;-60
2023/08/04 05:43:34;;;;;;;1999.90;999.90;;;;;;;15.12;100.00;93572.91;5025241;28;20203;-60
2023/08/04 05:46:02;;;;;;;1999.90;999.90;;;;;;;15.16;100.00;93592.69;5027652;28;20207;-60
2023/08/04 05:48:32;;;;;;;1999.90;999.90;;;;;;;15.19;100.00;93578.00;5027342;28;20199;-59
2023/08/04 05:50:57;;;;;;;1999.90;999.90;;;;;;;15.10;100.00;93580.88;5027267;28;20190;-59
2023/08/04 05:53:23;;;;;;;1999.90;999.90;;;;;;;15.18;100.00;93571.00;5027288;28;20264;-58
2023/08/04 05:55:48;;;;;;;1999.90;999.90;;;;;;;15.24;100.00;93555.34;5027386;28;20262;-58
2023/08/04 05:58:14;;;;;;;1999.90;999.90;;;;;;;15.27;100.00;93553.63;5027127;28;20222;-58
2023/08/04 06:00:39;;;;;;;1999.90;999.90;;;;;;;15.30;100.00;93547.91;5027243;28;20190;-56
2023/08/04 06:03:04;;;;;;;1999.90;999.90;;;;;;;15.29;100.00;93540.91;5027230;28;20198;-56
2023/08/04 06:05:30;;;;;;;1999.90;999.90;;;;;;;15.32;100.00;93544.69;5026839;28;20286;-59
2023/08/04 06:07:56;;;;;;;1999.90;999.90;;;;;;;15.33;100.00;93529.69;5026905;28;20207;-59
2023/08/04 06:10:21;;;;;;;1999.90;999.90;;;;;;;15.35;100.00;93522.53;5026745;28;20196;-59
2023/08/04 06:12:50;;;;;;;1999.90;999.90;;;;;;;15.40;100.00;93524.59;5027370;28;20199;-60
2023/08/04 06:15:16;;;;;;;1999.90;999.90;;;;;;;15.48;100.00;93525.69;5026850;28;20199;-59
2023/08/04 06:17:42;;;;;;;1999.90;999.90;;;;;;;15.55;100.00;93519.78;5026507;28;20215;-59
2023/08/04 06:20:08;;;;;;;1999.90;999.90;;;;;;;15.60;100.00;93507.34;5026486;28;20214;-62
2023/08/04 06:22:35;;;;;;;1999.90;999.90;;;;;;;15.62;100.00;93511.13;5026587;28;20187;-59
2023/08/04 06:25:01;;;;;;;1999.90;999.90;;;;;;;15.68;100.00;93509.22;5026700;28;20215;-59
2023/08/04 06:27:26;;;;;;;1999.90;999.90;;;;;;;15.76;100.00;93502.06;5026448;28;20210;-59
2023/08/04 06:29:52;;;;;;;1999.90;999.90;;;;;;;15.77;100.00;93494.56;5026490;28;20191;-66
2023/08/04 06:32:17;;;;;;;1999.90;999.90;;;;;;;15.78;100.00;93493.31;5026591;28;20190;-59
2023/08/04 06:34:42;;;;;;;1999.90;999.90;;;;;;;15.81;100.00;93503.38;5026602;28;20187;-60
2023/08/04 06:37:08;;;;;;;1999.90;999.90;;;;;;;15.79;100.00;93528.63;5027148;28;20211;-64
2023/08/04 06:39:33;;;;;;;1999.90;999.90;;;;;;;15.72;100.00;93573.06;5026248;28;20217;-61
2023/08/04 06:41:58;;;;;;;1999.90;999.90;;;;;;;15.62;100.00;93629.47;5026349;28;20198;-59
2023/08/04 06:44:24;;;;;;;1999.90;999.90;;;;;;;15.61;100.00;93676.72;5026226;28;20222;-60
2023/08/04 06:46:49;;;;;;;1999.90;999.90;;;;;;;15.54;100.00;93716.41;5026412;28;20203;-60
2023/08/04 06:49:15;;;;;;;1999.90;999.90;;;;;;;15.50;100.00;93746.09;5026445;28;20206;-63
2023/08/04 06:51:40;;;;;;;1999.90;999.90;;;;;;;15.59;100.00;93762.50;5026445;28;20191;-67
2023/08/04 06:54:05;;;;;;;1999.90;999.90;;;;;;;15.53;100.00;93780.94;5026002;28;20272;-65
2023/08/04 06:56:30;;;;;;;1999.90;999.90;;;;;;;15.54;100.00;93787.94;5026066;28;20195;-63
2023/08/04 06:58:56;;;;;;;1999.90;999.90;;;;;;;15.45;100.00;93798.28;5026692;28;20198;-59
2023/08/04 07:01:21;;;;;;;1999.90;999.90;;;;;;;15.54;100.00;93804.44;5025902;28;20191;-59
2023/08/04 07:03:49;;;;;;;1999.90;999.90;;;;;;;15.48;100.00;93822.84;5025804;28;20214;-63
2023/08/04 07:06:15;;;;;;;1999.90;999.90;;;;;;;15.56;100.00;93842.50;5025902;28;20230;-59
2023/08/04 07:08:41;;;;;;;1999.90;999.90;;;;;;;15.58;100.00;93871.06;5025777;28;20195;-61
2023/08/04 07:11:17;;;;;;;1999.90;999.90;;;;;;;15.57;100.00;93863.28;5025761;28;20254;-59
2023/08/04 07:13:43;;;;;;;1999.90;999.90;;;;;;;15.63;100.00;93862.16;5026106;28;20195;-59
2023/08/04 07:16:10;;;;;;;1999.90;999.90;;;;;;;15.68;100.00;93853.25;5025557;28;20191;-60
2023/08/04 07:18:36;;;;;;;1999.90;999.90;;;;;;;15.71;100.00;93841.28;5026068;28;20195;-59
2023/08/04 07:21:12;;;;;;;1999.90;999.90;;;;;;;15.77;100.00;93828.38;5025307;28;20207;-60
2023/08/04 07:23:39;;;;;;;1999.90;999.90;;;;;;;15.75;100.00;93852.88;5025490;28;20199;-59
2023/08/04 07:26:05;;;;;;;1999.90;999.90;;;;;;;15.75;100.00;93880.41;5025588;28;20270;-59
2023/08/04 07:28:31;;;;;;;1999.90;999.90;;;;;;;15.80;100.00;93888.00;5025371;28;20274;-59
2023/08/04 07:30:58;;;;;;;1999.90;999.90;;;;;;;15.80;100.00;93890.75;5025591;28;20188;-59
2023/08/04 07:33:25;;;;;;;1999.90;999.90;;;;;;;15.99;100.00;93872.81;5025136;28;20253;-60
2023/08/04 07:35:54;;;;;;;1999.90;999.90;;;;;;;16.22;100.00;93852.66;5025661;28;20199;-61
2023/08/04 07:38:20;;;;;;;1999.90;999.90;;;;;;;16.40;100.00;93852.44;5025910;28;20211;-59
2023/08/04 07:40:46;;;;;;;1999.90;999.90;;;;;;;16.51;100.00;93865.66;5025162;28;20195;-59
2023/08/04 07:43:12;;;;;;;1999.90;999.90;;;;;;;16.57;100.00;93898.84;5025223;28;20202;-59
2023/08/04 07:45:37;;;;;;;1999.90;999.90;;;;;;;16.77;100.00;93923.69;5025177;28;20250;-59
2023/08/04 07:48:03;;;;;;;1999.90;999.90;;;;;;;16.92;100.00;93957.50;5024876;28;20286;-59
2023/08/04 07:50:29;;;;;;;1999.90;999.90;;;;;;;17.04;100.00;94011.63;5025420;28;20184;-59
2023/08/04 07:52:54;;;;;;;1999.90;999.90;;;;;;;17.09;100.00;94101.97;5024911;28;20253;-59
2023/08/04 07:55:19;;;;;;;1999.90;999.90;;;;;;;17.21;100.00;94167.16;5024875;28;20257;-59
2023/08/04 07:57:45;;;;;;;1999.90;999.90;;;;;;;17.35;100.00;94232.63;5024770;28;20194;-60
2023/08/04 08:00:11;;;;;;;1999.90;999.90;;;;;;;17.36;100.00;94305.91;5024806;28;20187;-60
2023/08/04 08:02:36;;;;;;;1999.90;999.90;;;;;;;17.55;100.00;94362.53;5024799;28;20269;-59
2023/08/04 08:05:02;;;;;;;1999.90;999.90;;;;;;;17.73;100.00;94389.97;5025474;28;20198;-60
2023/08/04 08:07:27;;;;;;;1999.90;999.90;;;;;;;17.86;100.00;94442.97;5023877;28;20218;-59
2023/08/04 08:09:53;;;;;;;1999.90;999.90;;;;;;;17.99;100.00;94520.84;5025211;28;20199;-59
2023/08/04 08:12:18;;;;;;;1999.90;999.90;;;;;;;18.13;100.00;94543.00;5025285;28;20191;-59
2023/08/04 08:14:43;;;;;;;1999.90;999.90;;;;;;;18.30;100.00;94582.03;5024984;28;20241;-60
2023/08/04 08:17:09;;;;;;;1999.90;999.90;;;;;;;18.31;100.00;94667.25;5024647;28;20217;-59
2023/08/04 08:19:34;;;;;;;1999.90;999.90;;;;;;;18.44;100.00;94681.66;5024740;28;20206;-55
2023/08/04 08:22:00;;;;;;;1999.90;999.90;;;;;;;18.65;100.00;94677.06;5024313;28;20195;-56
2023/08/04 08:24:25;;;;;;;1999.90;999.90;;;;;;;18.76;100.00;94702.16;5024424;28;20293;-61
2023/08/04 08:26:51;;;;;;;1999.90;999.90;;;;;;;18.80;100.00;94727.66;5024204;28;20214;-58
2023/08/04 08:29:16;;;;;;;1999.90;999.90;;;;;;;18.71;100.00;94741.53;5024396;28;20195;-57
2023/08/04 08:31:41;;;;;;;1999.90;999.90;;;;;;;18.72;100.00;94768.00;5024486;28;20198;-56
2023/08/04 08:34:07;;;;;;;1999.90;999.90;;;;;;;18.87;100.00;94757.75;5024457;28;20195;-56
2023/08/04 08:36:32;;;;;;;1999.90;999.90;;;;;;;19.07;100.00;94771.72;5024584;28;20197;-56
2023/08/04 08:38:57;;;;;;;1999.90;999.90;;;;;;;19.66;100.00;94795.56;5024229;28;20205;-55
2023/08/04 08:41:23;;;;;;;1999.90;999.90;;;;;;;20.06;100.00;94826.25;5024561;28;20203;-54
2023/08/04 08:43:48;;;;;;;1999.90;999.90;;;;;;;20.40;100.00;94842.22;5024402;28;20195;-54
2023/08/04 08:46:15;;;;;;;1999.90;999.90;;;;;;;20.70;100.00;94859.63;5023820;28;20285;-53
2023/08/04 08:48:44;;;;;;;1999.90;999.90;;;;;;;20.50;100.00;94887.31;5024411;28;20196;-55
2023/08/04 08:51:20;;;;;;;1999.90;999.90;;;;;;;20.88;100.00;94895.47;5023976;28;20206;-52
2023/08/04 08:53:47;;;;;;;1999.90;999.90;;;;;;;20.85;100.00;94899.97;5024129;28;20261;-52
2023/08/04 08:56:14;;;;;;;1999.90;999.90;;;;;;;20.59;100.00;94904.63;5023888;28;20203;-46
2023/08/04 08:58:41;;;;;;;1999.90;999.90;;;;;;;20.46;100.00;94912.47;5024168;28;20213;-53
2023/08/04 09:01:06;;;;;;;1999.90;999.90;;;;;;;20.37;100.00;94909.78;5024271;28;20191;-58
2023/08/04 09:03:38;;;;;;;1999.90;999.90;;;;;;;20.33;100.00;94914.78;5023875;28;20195;-55
2023/08/04 09:06:04;;;;;;;1999.90;999.90;;;;;;;20.46;100.00;94917.22;5023824;28;20178;-58
2023/08/04 09:08:31;;;;;;;1999.90;999.90;;;;;;;20.35;100.00;94917.81;5024258;28;20218;-55
2023/08/04 09:10:59;;;;;;;1999.90;999.90;;;;;;;20.36;100.00;94905.47;5024146;28;20195;-60
2023/08/04 09:13:28;;;;;;;1999.90;999.90;;;;;;;20.27;100.00;94905.56;5024215;28;20202;-58
2023/08/04 09:15:56;;;;;;;1999.90;999.90;;;;;;;20.22;100.00;94911.03;5023775;28;20199;-58
2023/08/04 09:18:33;;;;;;;1999.90;999.90;;;;;;;20.34;100.00;94902.41;5026348;28;20198;-58
2023/08/04 09:21:08;;;;;;;1999.90;999.90;;;;;;;20.46;100.00;94906.91;5027876;28;20198;-58
2023/08/04 09:23:49;;;;;;;1999.90;999.90;;;;;;;20.60;100.00;94906.13;5028218;28;20194;-59
2023/08/04 09:26:15;;;;;;;1999.90;999.90;;;;;;;20.72;100.00;94913.41;5028156;28;20206;-58
2023/08/04 09:28:40;;;;;;;1999.90;999.90;;;;;;;20.63;100.00;94910.75;5027655;28;20210;-58
2023/08/04 09:31:07;;;;;;;1999.90;999.90;;;;;;;20.75;100.00;94911.66;5027523;28;20273;-59
2023/08/04 09:33:34;;;;;;;1999.90;999.90;;;;;;;21.03;100.00;94916.44;5027315;28;20207;-58
2023/08/04 09:36:19;;;;;;;1999.90;999.90;;;;;;;20.95;100.00;94912.53;5027494;28;20233;-58
2023/08/04 09:38:44;;;;;;;1999.90;999.90;;;;;;;21.12;100.00;94907.25;5027452;28;20234;-58
2023/08/04 09:41:12;;;;;;;1999.90;999.90;;;;;;;21.23;100.00;94905.38;5027443;28;20249;-53
2023/08/04 09:43:46;;;;;;;1999.90;999.90;;;;;;;21.24;100.00;94909.66;5027585;28;20226;-50
2023/08/04 09:46:12;;;;;;;1999.90;999.90;;;;;;;21.26;100.00;94907.19;5027496;28;20207;-55
2023/08/04 09:48:37;;;;;;;1999.90;999.90;;;;;;;21.49;100.00;94914.56;5027177;28;20195;-57
2023/08/04 09:51:18;;;;;;;1999.90;999.90;;;;;;;21.76;100.00;94910.63;5027299;28;20173;-54
2023/08/04 09:53:49;;;;;;;1999.90;999.90;;;;;;;21.83;100.00;94910.22;5027624;28;20203;-55
2023/08/04 09:56:19;;;;;;;1999.90;999.90;;;;;;;21.76;100.00;94916.19;5027287;28;20195;-54
2023/08/04 09:58:46;;;;;;;1999.90;999.90;;;;;;;21.81;100.00;94927.38;5027189;28;20191;-59
2023/08/04 10:01:12;;;;;;;1999.90;999.90;;;;;;;21.82;100.00;94917.03;5026880;28;20195;-66
2023/08/04 10:03:41;;;;;;;1999.90;999.90;;;;;;;21.90;100.00;94918.91;5026867;28;20191;-60
2023/08/04 10:06:06;;;;;;;1999.90;999.90;;;;;;;21.82;100.00;94911.47;5027072;28;20261;-60
2023/08/04 10:08:39;;;;;;;1999.90;999.90;;;;;;;21.90;100.00;94920.91;5027012;28;20195;-59
2023/08/04 10:11:06;;;;;;;1999.90;999.90;;;;;;;21.77;100.00;94907.38;5027224;28;20262;-61
2023/08/04 10:13:46;;;;;;;1999.90;999.90;;;;;;;21.95;100.00;94907.06;5027183;28;20164;-59
2023/08/04 10:16:17;;;;;;;1999.90;999.90;;;;;;;22.09;100.00;94906.22;5027241;28;20191;-59
2023/08/04 10:19:00;;;;;;;1999.90;999.90;;;;;;;22.16;100.00;94905.81;5026977;28;20286;-58
2023/08/04 10:21:27;;;;;;;1999.90;999.90;;;;;;;22.26;100.00;94909.94;5026668;28;20199;-58
2023/08/04 10:23:53;;;;;;;1999.90;999.90;;;;;;;22.18;100.00;94908.84;5026749;28;20209;-57
2023/08/04 10:26:19;;;;;;;1999.90;999.90;;;;;;;22.18;100.00;94908.09;5026508;28;20206;-58
2023/08/04 10:29:03;;;;;;;1999.90;999.90;;;;;;;22.32;100.00;94913.53;5026058;28;20195;-58
2023/08/04 10:31:55;;;;;;;1999.90;999.90;;;;;;;22.24;100.00;94922.81;5026953;28;20194;-59
2023/08/04 10:34:31;;;;;;;1999.90;999.90;;;;;;;22.11;100.00;94909.28;5026254;28;20203;-58
2023/08/04 10:37:11;;;;;;;1999.90;999.90;;;;;;;22.03;100.00;94899.06;5026391;28;20202;-60
2023/08/04 10:39:58;;;;;;;1999.90;999.90;;;;;;;22.17;100.00;94914.88;5026238;28;20195;-60
2023/08/04 10:42:26;;;;;;;1999.90;999.90;;;;;;;22.25;100.00;94919.53;5026830;28;20194;-60
2023/08/04 10:45:05;;;;;;;1999.90;999.90;;;;;;;22.10;100.00;94940.34;5026274;28;20288;-61